sensor_id;sensor_type;location;lat;lon;timestamp;P1;durP1;ratioP1;P2;durP2;ratioP2
21777;SDS011;11050;52.222;20.916;2022-07-17T00:00:02;6.45;;;2.83;;
21777;SDS011;11050;52.222;20.916;2022-07-17T00:02:29;7.18;;;3.40;;
21777;SDS011;11050;52.222;20.916;2022-07-17T00:04:55;6.37;;;3.20;;
21777;SDS011;11050;52.222;20.916;2022-07-17T00:07:20;3.90;;;3.05;;
21777;SDS011;11050;52.222;20.916;2022-07-17T00:09:46;5.55;;;3.05;;
21777;SDS011;11050;52.222;20.916;2022-07-17T00:12:12;4.07;;;2.67;;
21777;SDS011;11050;52.222;20.916;2022-07-17T00:14:38;6.60;;;2.67;;
21777;SDS011;11050;52.222;20.916;2022-07-17T00:17:04;7.57;;;3.33;;
21777;SDS011;11050;52.222;20.916;2022-07-17T00:19:30;7.82;;;3.38;;
21777;SDS011;11050;52.222;20.916;2022-07-17T00:21:57;3.95;;;2.70;;
21777;SDS011;11050;52.222;20.916;2022-07-17T00:24:23;6.68;;;3.05;;
21777;SDS011;11050;52.222;20.916;2022-07-17T00:26:50;5.40;;;3.17;;
21777;SDS011;11050;52.222;20.916;2022-07-17T00:29:17;7.68;;;3.42;;
21777;SDS011;11050;52.222;20.916;2022-07-17T00:31:44;5.68;;;3.38;;
21777;SDS011;11050;52.222;20.916;2022-07-17T00:34:10;4.60;;;3.38;;
21777;SDS011;11050;52.222;20.916;2022-07-17T00:36:36;4.43;;;3.33;;
21777;SDS011;11050;52.222;20.916;2022-07-17T00:39:03;4.72;;;3.45;;
21777;SDS011;11050;52.222;20.916;2022-07-17T00:41:29;4.85;;;3.30;;
21777;SDS011;11050;52.222;20.916;2022-07-17T00:44:02;8.43;;;3.42;;
21777;SDS011;11050;52.222;20.916;2022-07-17T00:46:29;5.55;;;3.67;;
21777;SDS011;11050;52.222;20.916;2022-07-17T00:48:55;6.35;;;4.50;;
21777;SDS011;11050;52.222;20.916;2022-07-17T00:51:21;8.02;;;4.22;;
21777;SDS011;11050;52.222;20.916;2022-07-17T00:53:47;7.53;;;3.88;;
21777;SDS011;11050;52.222;20.916;2022-07-17T00:56:15;9.20;;;3.80;;
21777;SDS011;11050;52.222;20.916;2022-07-17T00:58:42;5.88;;;3.75;;
21777;SDS011;11050;52.222;20.916;2022-07-17T01:01:09;6.95;;;4.00;;
21777;SDS011;11050;52.222;20.916;2022-07-17T01:03:36;9.15;;;4.85;;
21777;SDS011;11050;52.222;20.916;2022-07-17T01:06:02;5.45;;;3.90;;
21777;SDS011;11050;52.222;20.916;2022-07-17T01:08:28;9.60;;;4.72;;
21777;SDS011;11050;52.222;20.916;2022-07-17T01:10:55;5.80;;;4.15;;
21777;SDS011;11050;52.222;20.916;2022-07-17T01:13:20;8.07;;;4.30;;
21777;SDS011;11050;52.222;20.916;2022-07-17T01:15:46;7.97;;;4.43;;
21777;SDS011;11050;52.222;20.916;2022-07-17T01:18:13;7.53;;;4.53;;
21777;SDS011;11050;52.222;20.916;2022-07-17T01:20:41;5.82;;;3.88;;
21777;SDS011;11050;52.222;20.916;2022-07-17T01:23:10;6.65;;;4.28;;
21777;SDS011;11050;52.222;20.916;2022-07-17T01:25:37;9.60;;;4.65;;
21777;SDS011;11050;52.222;20.916;2022-07-17T01:28:03;9.73;;;4.45;;
21777;SDS011;11050;52.222;20.916;2022-07-17T01:30:30;7.05;;;3.75;;
21777;SDS011;11050;52.222;20.916;2022-07-17T01:32:56;9.98;;;4.68;;
21777;SDS011;11050;52.222;20.916;2022-07-17T01:35:22;7.57;;;4.05;;
21777;SDS011;11050;52.222;20.916;2022-07-17T01:37:47;6.72;;;4.30;;
21777;SDS011;11050;52.222;20.916;2022-07-17T01:40:15;5.88;;;4.63;;
21777;SDS011;11050;52.222;20.916;2022-07-17T01:42:43;6.47;;;4.70;;
21777;SDS011;11050;52.222;20.916;2022-07-17T01:45:12;7.20;;;4.63;;
21777;SDS011;11050;52.222;20.916;2022-07-17T01:47:39;7.87;;;4.63;;
21777;SDS011;11050;52.222;20.916;2022-07-17T01:50:06;6.47;;;4.50;;
21777;SDS011;11050;52.222;20.916;2022-07-17T01:52:34;7.80;;;4.20;;
21777;SDS011;11050;52.222;20.916;2022-07-17T01:55:06;8.27;;;5.23;;
21777;SDS011;11050;52.222;20.916;2022-07-17T01:57:35;6.77;;;5.00;;
21777;SDS011;11050;52.222;20.916;2022-07-17T02:00:05;8.33;;;4.40;;
21777;SDS011;11050;52.222;20.916;2022-07-17T02:02:35;7.05;;;4.50;;
21777;SDS011;11050;52.222;20.916;2022-07-17T02:05:01;7.95;;;4.65;;
21777;SDS011;11050;52.222;20.916;2022-07-17T02:07:28;7.43;;;4.43;;
21777;SDS011;11050;52.222;20.916;2022-07-17T02:09:54;8.68;;;4.13;;
21777;SDS011;11050;52.222;20.916;2022-07-17T02:12:20;11.77;;;4.60;;
21777;SDS011;11050;52.222;20.916;2022-07-17T02:14:45;8.15;;;4.22;;
21777;SDS011;11050;52.222;20.916;2022-07-17T02:17:11;8.67;;;4.80;;
21777;SDS011;11050;52.222;20.916;2022-07-17T02:19:37;7.95;;;4.85;;
21777;SDS011;11050;52.222;20.916;2022-07-17T02:22:03;8.45;;;4.90;;
21777;SDS011;11050;52.222;20.916;2022-07-17T02:24:29;12.20;;;5.22;;
21777;SDS011;11050;52.222;20.916;2022-07-17T02:26:54;9.27;;;5.07;;
21777;SDS011;11050;52.222;20.916;2022-07-17T02:29:20;11.57;;;5.32;;
21777;SDS011;11050;52.222;20.916;2022-07-17T02:31:46;8.55;;;4.72;;
21777;SDS011;11050;52.222;20.916;2022-07-17T02:34:12;9.63;;;4.80;;
21777;SDS011;11050;52.222;20.916;2022-07-17T02:36:38;7.57;;;5.28;;
21777;SDS011;11050;52.222;20.916;2022-07-17T02:39:03;10.20;;;5.65;;
21777;SDS011;11050;52.222;20.916;2022-07-17T02:41:29;9.83;;;5.33;;
21777;SDS011;11050;52.222;20.916;2022-07-17T02:43:55;7.90;;;5.32;;
21777;SDS011;11050;52.222;20.916;2022-07-17T02:46:21;10.07;;;5.55;;
21777;SDS011;11050;52.222;20.916;2022-07-17T02:48:46;7.87;;;5.20;;
21777;SDS011;11050;52.222;20.916;2022-07-17T02:51:12;12.93;;;6.32;;
21777;SDS011;11050;52.222;20.916;2022-07-17T02:53:38;11.93;;;5.90;;
21777;SDS011;11050;52.222;20.916;2022-07-17T02:56:04;7.47;;;5.70;;
21777;SDS011;11050;52.222;20.916;2022-07-17T02:58:30;8.13;;;5.80;;
21777;SDS011;11050;52.222;20.916;2022-07-17T03:00:56;9.05;;;5.75;;
21777;SDS011;11050;52.222;20.916;2022-07-17T03:03:22;10.82;;;5.15;;
21777;SDS011;11050;52.222;20.916;2022-07-17T03:05:48;9.95;;;5.65;;
21777;SDS011;11050;52.222;20.916;2022-07-17T03:08:14;9.32;;;5.80;;
21777;SDS011;11050;52.222;20.916;2022-07-17T03:10:40;12.23;;;5.65;;
21777;SDS011;11050;52.222;20.916;2022-07-17T03:13:06;12.27;;;6.18;;
21777;SDS011;11050;52.222;20.916;2022-07-17T03:15:31;10.90;;;5.85;;
21777;SDS011;11050;52.222;20.916;2022-07-17T03:17:57;8.75;;;5.88;;
21777;SDS011;11050;52.222;20.916;2022-07-17T03:20:23;10.05;;;5.93;;
21777;SDS011;11050;52.222;20.916;2022-07-17T03:22:49;11.18;;;5.57;;
21777;SDS011;11050;52.222;20.916;2022-07-17T03:25:15;8.18;;;5.70;;
21777;SDS011;11050;52.222;20.916;2022-07-17T03:27:41;7.20;;;5.40;;
21777;SDS011;11050;52.222;20.916;2022-07-17T03:30:07;10.25;;;5.68;;
21777;SDS011;11050;52.222;20.916;2022-07-17T03:32:33;9.43;;;5.47;;
21777;SDS011;11050;52.222;20.916;2022-07-17T03:34:59;8.00;;;5.00;;
21777;SDS011;11050;52.222;20.916;2022-07-17T03:37:26;8.90;;;5.93;;
21777;SDS011;11050;52.222;20.916;2022-07-17T03:39:53;9.50;;;5.65;;
21777;SDS011;11050;52.222;20.916;2022-07-17T03:42:20;10.10;;;5.63;;
21777;SDS011;11050;52.222;20.916;2022-07-17T03:44:46;10.32;;;5.30;;
21777;SDS011;11050;52.222;20.916;2022-07-17T03:47:12;8.00;;;5.35;;
21777;SDS011;11050;52.222;20.916;2022-07-17T03:49:38;7.60;;;5.20;;
21777;SDS011;11050;52.222;20.916;2022-07-17T03:52:04;13.85;;;5.50;;
21777;SDS011;11050;52.222;20.916;2022-07-17T03:54:30;7.65;;;5.32;;
21777;SDS011;11050;52.222;20.916;2022-07-17T03:56:56;10.23;;;5.40;;
21777;SDS011;11050;52.222;20.916;2022-07-17T03:59:22;11.10;;;5.53;;
21777;SDS011;11050;52.222;20.916;2022-07-17T04:01:48;7.97;;;5.47;;
21777;SDS011;11050;52.222;20.916;2022-07-17T04:04:14;9.18;;;5.15;;
21777;SDS011;11050;52.222;20.916;2022-07-17T04:06:40;11.00;;;5.90;;
21777;SDS011;11050;52.222;20.916;2022-07-17T04:09:06;12.85;;;4.93;;
21777;SDS011;11050;52.222;20.916;2022-07-17T04:11:31;15.35;;;5.43;;
21777;SDS011;11050;52.222;20.916;2022-07-17T04:13:57;8.85;;;5.90;;
21777;SDS011;11050;52.222;20.916;2022-07-17T04:16:23;11.40;;;5.50;;
21777;SDS011;11050;52.222;20.916;2022-07-17T04:18:49;11.40;;;5.40;;
21777;SDS011;11050;52.222;20.916;2022-07-17T04:21:15;6.72;;;4.85;;
21777;SDS011;11050;52.222;20.916;2022-07-17T04:23:40;11.45;;;5.03;;
21777;SDS011;11050;52.222;20.916;2022-07-17T04:26:06;8.10;;;4.50;;
21777;SDS011;11050;52.222;20.916;2022-07-17T04:28:33;10.05;;;4.68;;
21777;SDS011;11050;52.222;20.916;2022-07-17T04:30:59;7.50;;;3.92;;
21777;SDS011;11050;52.222;20.916;2022-07-17T04:33:25;7.50;;;4.53;;
21777;SDS011;11050;52.222;20.916;2022-07-17T04:35:51;11.38;;;4.18;;
21777;SDS011;11050;52.222;20.916;2022-07-17T04:38:18;9.27;;;4.35;;
21777;SDS011;11050;52.222;20.916;2022-07-17T04:40:44;8.10;;;3.72;;
21777;SDS011;11050;52.222;20.916;2022-07-17T04:43:11;12.15;;;4.13;;
21777;SDS011;11050;52.222;20.916;2022-07-17T04:45:38;6.07;;;3.10;;
21777;SDS011;11050;52.222;20.916;2022-07-17T04:48:04;9.10;;;3.60;;
21777;SDS011;11050;52.222;20.916;2022-07-17T04:50:30;9.85;;;3.05;;
21777;SDS011;11050;52.222;20.916;2022-07-17T04:52:56;4.90;;;3.17;;
21777;SDS011;11050;52.222;20.916;2022-07-17T04:55:22;8.18;;;3.70;;
21777;SDS011;11050;52.222;20.916;2022-07-17T04:57:48;6.43;;;3.38;;
21777;SDS011;11050;52.222;20.916;2022-07-17T05:00:14;9.75;;;3.10;;
21777;SDS011;11050;52.222;20.916;2022-07-17T05:02:41;6.80;;;3.25;;
21777;SDS011;11050;52.222;20.916;2022-07-17T05:05:08;6.47;;;3.03;;
21777;SDS011;11050;52.222;20.916;2022-07-17T05:07:33;6.97;;;3.65;;
21777;SDS011;11050;52.222;20.916;2022-07-17T05:09:59;7.60;;;3.17;;
21777;SDS011;11050;52.222;20.916;2022-07-17T05:12:25;6.65;;;2.67;;
21777;SDS011;11050;52.222;20.916;2022-07-17T05:14:51;8.00;;;3.00;;
21777;SDS011;11050;52.222;20.916;2022-07-17T05:17:17;9.95;;;3.80;;
21777;SDS011;11050;52.222;20.916;2022-07-17T05:19:43;8.90;;;3.00;;
21777;SDS011;11050;52.222;20.916;2022-07-17T05:22:09;7.72;;;3.33;;
21777;SDS011;11050;52.222;20.916;2022-07-17T05:24:34;4.72;;;3.20;;
21777;SDS011;11050;52.222;20.916;2022-07-17T05:27:00;5.88;;;3.22;;
21777;SDS011;11050;52.222;20.916;2022-07-17T05:29:26;7.03;;;2.90;;
21777;SDS011;11050;52.222;20.916;2022-07-17T05:31:53;7.15;;;2.90;;
21777;SDS011;11050;52.222;20.916;2022-07-17T05:34:19;8.07;;;2.90;;
21777;SDS011;11050;52.222;20.916;2022-07-17T05:36:46;4.75;;;2.80;;
21777;SDS011;11050;52.222;20.916;2022-07-17T05:39:12;6.28;;;3.10;;
21777;SDS011;11050;52.222;20.916;2022-07-17T05:41:38;6.00;;;3.60;;
21777;SDS011;11050;52.222;20.916;2022-07-17T05:44:04;8.88;;;4.20;;
21777;SDS011;11050;52.222;20.916;2022-07-17T05:46:30;6.80;;;3.13;;
21777;SDS011;11050;52.222;20.916;2022-07-17T05:48:56;9.35;;;4.13;;
21777;SDS011;11050;52.222;20.916;2022-07-17T05:51:22;5.53;;;3.33;;
21777;SDS011;11050;52.222;20.916;2022-07-17T05:53:48;8.00;;;3.08;;
21777;SDS011;11050;52.222;20.916;2022-07-17T05:56:13;7.88;;;3.10;;
21777;SDS011;11050;52.222;20.916;2022-07-17T05:58:39;6.68;;;2.92;;
21777;SDS011;11050;52.222;20.916;2022-07-17T06:01:05;6.97;;;2.83;;
21777;SDS011;11050;52.222;20.916;2022-07-17T06:03:31;6.47;;;2.63;;
21777;SDS011;11050;52.222;20.916;2022-07-17T06:05:56;7.43;;;2.58;;
21777;SDS011;11050;52.222;20.916;2022-07-17T06:08:22;8.55;;;3.20;;
21777;SDS011;11050;52.222;20.916;2022-07-17T06:10:48;10.65;;;2.72;;
21777;SDS011;11050;52.222;20.916;2022-07-17T06:13:14;10.65;;;3.47;;
21777;SDS011;11050;52.222;20.916;2022-07-17T06:15:40;6.85;;;2.83;;
21777;SDS011;11050;52.222;20.916;2022-07-17T06:18:06;6.53;;;2.90;;
21777;SDS011;11050;52.222;20.916;2022-07-17T06:20:32;6.90;;;3.40;;
21777;SDS011;11050;52.222;20.916;2022-07-17T06:22:57;9.90;;;3.70;;
21777;SDS011;11050;52.222;20.916;2022-07-17T06:25:23;12.02;;;4.28;;
21777;SDS011;11050;52.222;20.916;2022-07-17T06:27:49;5.43;;;4.40;;
21777;SDS011;11050;52.222;20.916;2022-07-17T06:30:15;6.25;;;4.90;;
21777;SDS011;11050;52.222;20.916;2022-07-17T06:32:43;8.50;;;4.78;;
21777;SDS011;11050;52.222;20.916;2022-07-17T06:35:09;7.07;;;4.78;;
21777;SDS011;11050;52.222;20.916;2022-07-17T06:37:35;6.72;;;5.40;;
21777;SDS011;11050;52.222;20.916;2022-07-17T06:40:02;9.85;;;5.80;;
21777;SDS011;11050;52.222;20.916;2022-07-17T06:42:29;9.73;;;5.82;;
21777;SDS011;11050;52.222;20.916;2022-07-17T06:44:55;10.98;;;5.75;;
21777;SDS011;11050;52.222;20.916;2022-07-17T06:47:21;10.27;;;5.32;;
21777;SDS011;11050;52.222;20.916;2022-07-17T06:49:47;10.35;;;6.47;;
21777;SDS011;11050;52.222;20.916;2022-07-17T06:52:13;8.52;;;5.80;;
21777;SDS011;11050;52.222;20.916;2022-07-17T06:54:38;8.13;;;6.35;;
21777;SDS011;11050;52.222;20.916;2022-07-17T06:57:04;9.82;;;5.35;;
21777;SDS011;11050;52.222;20.916;2022-07-17T06:59:30;6.28;;;5.32;;
21777;SDS011;11050;52.222;20.916;2022-07-17T07:01:56;8.73;;;5.43;;
21777;SDS011;11050;52.222;20.916;2022-07-17T07:04:22;6.22;;;4.95;;
21777;SDS011;11050;52.222;20.916;2022-07-17T07:06:47;6.07;;;5.57;;
21777;SDS011;11050;52.222;20.916;2022-07-17T07:09:13;14.05;;;6.13;;
21777;SDS011;11050;52.222;20.916;2022-07-17T07:11:39;11.68;;;7.07;;
21777;SDS011;11050;52.222;20.916;2022-07-17T07:14:06;8.38;;;6.47;;
21777;SDS011;11050;52.222;20.916;2022-07-17T07:16:33;8.45;;;5.40;;
21777;SDS011;11050;52.222;20.916;2022-07-17T07:18:59;6.07;;;5.47;;
21777;SDS011;11050;52.222;20.916;2022-07-17T07:21:26;10.63;;;6.10;;
21777;SDS011;11050;52.222;20.916;2022-07-17T07:23:53;6.07;;;4.70;;
21777;SDS011;11050;52.222;20.916;2022-07-17T07:26:19;7.57;;;5.50;;
21777;SDS011;11050;52.222;20.916;2022-07-17T07:28:46;5.60;;;4.97;;
21777;SDS011;11050;52.222;20.916;2022-07-17T07:31:12;7.38;;;5.32;;
21777;SDS011;11050;52.222;20.916;2022-07-17T07:33:38;8.48;;;5.05;;
21777;SDS011;11050;52.222;20.916;2022-07-17T07:36:04;7.93;;;5.38;;
21777;SDS011;11050;52.222;20.916;2022-07-17T07:38:30;6.28;;;5.20;;
21777;SDS011;11050;52.222;20.916;2022-07-17T07:40:56;6.85;;;5.20;;
21777;SDS011;11050;52.222;20.916;2022-07-17T07:43:22;7.00;;;5.28;;
21777;SDS011;11050;52.222;20.916;2022-07-17T07:45:49;6.68;;;5.00;;
21777;SDS011;11050;52.222;20.916;2022-07-17T07:48:15;8.68;;;4.90;;
21777;SDS011;11050;52.222;20.916;2022-07-17T07:50:41;6.00;;;4.82;;
21777;SDS011;11050;52.222;20.916;2022-07-17T07:53:07;9.07;;;4.82;;
21777;SDS011;11050;52.222;20.916;2022-07-17T07:55:34;9.70;;;3.90;;
21777;SDS011;11050;52.222;20.916;2022-07-17T07:58:03;4.03;;;3.60;;
21777;SDS011;11050;52.222;20.916;2022-07-17T08:00:32;8.40;;;4.13;;
21777;SDS011;11050;52.222;20.916;2022-07-17T08:02:58;6.90;;;4.00;;
21777;SDS011;11050;52.222;20.916;2022-07-17T08:05:24;6.18;;;3.58;;
21777;SDS011;11050;52.222;20.916;2022-07-17T08:07:50;6.47;;;3.10;;
21777;SDS011;11050;52.222;20.916;2022-07-17T08:10:17;6.20;;;3.28;;
21777;SDS011;11050;52.222;20.916;2022-07-17T08:12:43;5.30;;;3.25;;
21777;SDS011;11050;52.222;20.916;2022-07-17T08:15:09;8.90;;;3.47;;
21777;SDS011;11050;52.222;20.916;2022-07-17T08:17:36;7.93;;;3.90;;
21777;SDS011;11050;52.222;20.916;2022-07-17T08:20:02;7.05;;;3.47;;
21777;SDS011;11050;52.222;20.916;2022-07-17T08:22:29;7.10;;;3.30;;
21777;SDS011;11050;52.222;20.916;2022-07-17T08:24:55;7.07;;;3.03;;
21777;SDS011;11050;52.222;20.916;2022-07-17T08:27:21;6.63;;;3.20;;
21777;SDS011;11050;52.222;20.916;2022-07-17T08:29:47;4.50;;;3.03;;
21777;SDS011;11050;52.222;20.916;2022-07-17T08:32:13;3.08;;;2.80;;
21777;SDS011;11050;52.222;20.916;2022-07-17T08:34:39;6.07;;;3.20;;
21777;SDS011;11050;52.222;20.916;2022-07-17T08:37:04;4.85;;;3.03;;
21777;SDS011;11050;52.222;20.916;2022-07-17T08:39:30;4.45;;;2.95;;
21777;SDS011;11050;52.222;20.916;2022-07-17T08:41:56;4.47;;;2.95;;
21777;SDS011;11050;52.222;20.916;2022-07-17T08:44:22;5.00;;;2.85;;
21777;SDS011;11050;52.222;20.916;2022-07-17T08:46:48;4.20;;;2.85;;
21777;SDS011;11050;52.222;20.916;2022-07-17T08:49:14;3.40;;;2.67;;
21777;SDS011;11050;52.222;20.916;2022-07-17T08:51:47;9.90;;;2.92;;
21777;SDS011;11050;52.222;20.916;2022-07-17T08:54:13;4.20;;;2.38;;
21777;SDS011;11050;52.222;20.916;2022-07-17T08:56:40;4.07;;;2.50;;
21777;SDS011;11050;52.222;20.916;2022-07-17T08:59:05;4.63;;;3.13;;
21777;SDS011;11050;52.222;20.916;2022-07-17T09:01:31;5.03;;;2.30;;
21777;SDS011;11050;52.222;20.916;2022-07-17T09:03:58;2.72;;;2.10;;
21777;SDS011;11050;52.222;20.916;2022-07-17T09:06:32;4.13;;;2.22;;
21777;SDS011;11050;52.222;20.916;2022-07-17T09:09:00;3.25;;;1.90;;
21777;SDS011;11050;52.222;20.916;2022-07-17T09:11:41;7.43;;;2.60;;
21777;SDS011;11050;52.222;20.916;2022-07-17T09:14:16;2.13;;;1.50;;
21777;SDS011;11050;52.222;20.916;2022-07-17T09:16:52;4.55;;;2.03;;
21777;SDS011;11050;52.222;20.916;2022-07-17T09:19:28;4.47;;;1.83;;
21777;SDS011;11050;52.222;20.916;2022-07-17T09:22:20;2.92;;;1.80;;
21777;SDS011;11050;52.222;20.916;2022-07-17T09:30:08;5.15;;;1.70;;
21777;SDS011;11050;52.222;20.916;2022-07-17T09:32:37;2.00;;;1.60;;
21777;SDS011;11050;52.222;20.916;2022-07-17T09:35:10;5.70;;;2.20;;
21777;SDS011;11050;52.222;20.916;2022-07-17T09:37:37;3.97;;;2.47;;
21777;SDS011;11050;52.222;20.916;2022-07-17T09:40:13;4.35;;;2.05;;
21777;SDS011;11050;52.222;20.916;2022-07-17T09:43:00;10.32;;;2.75;;
21777;SDS011;11050;52.222;20.916;2022-07-17T09:45:26;2.55;;;1.63;;
21777;SDS011;11050;52.222;20.916;2022-07-17T09:47:52;2.58;;;1.63;;
21777;SDS011;11050;52.222;20.916;2022-07-17T09:50:19;2.83;;;1.85;;
21777;SDS011;11050;52.222;20.916;2022-07-17T09:52:46;2.60;;;1.70;;
21777;SDS011;11050;52.222;20.916;2022-07-17T09:55:17;5.45;;;2.10;;
21777;SDS011;11050;52.222;20.916;2022-07-17T09:57:47;2.63;;;2.00;;
21777;SDS011;11050;52.222;20.916;2022-07-17T10:00:15;2.67;;;2.13;;
21777;SDS011;11050;52.222;20.916;2022-07-17T10:02:44;9.57;;;2.00;;
21777;SDS011;11050;52.222;20.916;2022-07-17T10:05:11;3.55;;;2.30;;
21777;SDS011;11050;52.222;20.916;2022-07-17T10:07:43;3.97;;;1.88;;
21777;SDS011;11050;52.222;20.916;2022-07-17T10:10:11;2.55;;;2.03;;
21777;SDS011;11050;52.222;20.916;2022-07-17T10:12:41;3.03;;;1.70;;
21777;SDS011;11050;52.222;20.916;2022-07-17T10:15:10;9.52;;;2.35;;
21777;SDS011;11050;52.222;20.916;2022-07-17T10:17:37;7.47;;;1.50;;
21777;SDS011;11050;52.222;20.916;2022-07-17T10:20:03;6.18;;;1.90;;
21777;SDS011;11050;52.222;20.916;2022-07-17T10:22:45;2.22;;;1.23;;
21777;SDS011;11050;52.222;20.916;2022-07-17T10:25:13;4.78;;;1.20;;
21777;SDS011;11050;52.222;20.916;2022-07-17T10:27:51;2.22;;;1.38;;
21777;SDS011;11050;52.222;20.916;2022-07-17T10:30:23;3.20;;;1.75;;
21777;SDS011;11050;52.222;20.916;2022-07-17T10:32:56;3.20;;;1.88;;
21777;SDS011;11050;52.222;20.916;2022-07-17T10:35:40;3.83;;;1.52;;
21777;SDS011;11050;52.222;20.916;2022-07-17T10:38:11;2.35;;;1.92;;
21777;SDS011;11050;52.222;20.916;2022-07-17T10:40:40;2.30;;;1.60;;
21777;SDS011;11050;52.222;20.916;2022-07-17T10:43:07;3.60;;;2.00;;
21777;SDS011;11050;52.222;20.916;2022-07-17T10:45:41;2.95;;;2.13;;
21777;SDS011;11050;52.222;20.916;2022-07-17T10:48:11;2.30;;;1.92;;
21777;SDS011;11050;52.222;20.916;2022-07-17T10:50:46;3.60;;;1.70;;
21777;SDS011;11050;52.222;20.916;2022-07-17T10:58:24;3.55;;;1.70;;
21777;SDS011;11050;52.222;20.916;2022-07-17T11:03:29;4.60;;;1.80;;
21777;SDS011;11050;52.222;20.916;2022-07-17T11:06:07;2.53;;;1.83;;
21777;SDS011;11050;52.222;20.916;2022-07-17T11:08:35;2.92;;;1.73;;
21777;SDS011;11050;52.222;20.916;2022-07-17T11:11:10;3.63;;;2.22;;
21777;SDS011;11050;52.222;20.916;2022-07-17T11:13:36;3.90;;;1.60;;
21777;SDS011;11050;52.222;20.916;2022-07-17T11:16:02;2.97;;;1.60;;
21777;SDS011;11050;52.222;20.916;2022-07-17T11:18:28;1.73;;;1.50;;
21777;SDS011;11050;52.222;20.916;2022-07-17T11:20:55;1.52;;;1.33;;
21777;SDS011;11050;52.222;20.916;2022-07-17T11:23:27;4.25;;;1.85;;
21777;SDS011;11050;52.222;20.916;2022-07-17T11:25:59;3.42;;;1.80;;
21777;SDS011;11050;52.222;20.916;2022-07-17T11:28:33;1.98;;;1.42;;
21777;SDS011;11050;52.222;20.916;2022-07-17T11:31:26;2.00;;;1.45;;
21777;SDS011;11050;52.222;20.916;2022-07-17T11:39:13;2.25;;;1.30;;
21777;SDS011;11050;52.222;20.916;2022-07-17T11:41:42;2.17;;;1.20;;
21777;SDS011;11050;52.222;20.916;2022-07-17T11:44:16;2.05;;;1.20;;
21777;SDS011;11050;52.222;20.916;2022-07-17T11:46:45;2.38;;;1.52;;
21777;SDS011;11050;52.222;20.916;2022-07-17T11:49:24;2.88;;;1.60;;
21777;SDS011;11050;52.222;20.916;2022-07-17T11:51:55;2.00;;;1.73;;
21777;SDS011;11050;52.222;20.916;2022-07-17T11:54:23;1.83;;;1.40;;
21777;SDS011;11050;52.222;20.916;2022-07-17T11:56:55;4.40;;;1.48;;
21777;SDS011;11050;52.222;20.916;2022-07-17T11:59:27;2.67;;;1.50;;
21777;SDS011;11050;52.222;20.916;2022-07-17T12:02:06;2.38;;;1.52;;
21777;SDS011;11050;52.222;20.916;2022-07-17T12:04:34;2.63;;;1.58;;
21777;SDS011;11050;52.222;20.916;2022-07-17T12:07:01;2.03;;;1.35;;
21777;SDS011;11050;52.222;20.916;2022-07-17T12:09:29;2.55;;;1.67;;
21777;SDS011;11050;52.222;20.916;2022-07-17T12:12:02;2.58;;;1.30;;
21777;SDS011;11050;52.222;20.916;2022-07-17T12:14:28;1.50;;;1.30;;
21777;SDS011;11050;52.222;20.916;2022-07-17T12:16:57;1.55;;;1.20;;
21777;SDS011;11050;52.222;20.916;2022-07-17T12:19:29;2.25;;;1.27;;
21777;SDS011;11050;52.222;20.916;2022-07-17T12:21:57;3.38;;;1.30;;
21777;SDS011;11050;52.222;20.916;2022-07-17T12:24:30;1.42;;;1.20;;
21777;SDS011;11050;52.222;20.916;2022-07-17T12:27:09;2.25;;;0.98;;
21777;SDS011;11050;52.222;20.916;2022-07-17T12:29:41;1.55;;;1.27;;
21777;SDS011;11050;52.222;20.916;2022-07-17T12:32:10;1.40;;;1.08;;
21777;SDS011;11050;52.222;20.916;2022-07-17T12:34:41;3.22;;;1.27;;
21777;SDS011;11050;52.222;20.916;2022-07-17T12:37:14;1.30;;;0.95;;
21777;SDS011;11050;52.222;20.916;2022-07-17T12:39:46;2.20;;;1.08;;
21777;SDS011;11050;52.222;20.916;2022-07-17T12:42:14;4.32;;;1.10;;
21777;SDS011;11050;52.222;20.916;2022-07-17T12:44:41;2.53;;;1.20;;
21777;SDS011;11050;52.222;20.916;2022-07-17T12:47:09;1.98;;;1.20;;
21777;SDS011;11050;52.222;20.916;2022-07-17T12:49:35;1.50;;;1.10;;
21777;SDS011;11050;52.222;20.916;2022-07-17T12:52:00;1.42;;;1.00;;
21777;SDS011;11050;52.222;20.916;2022-07-17T12:54:26;1.13;;;0.90;;
21777;SDS011;11050;52.222;20.916;2022-07-17T12:56:53;1.35;;;0.95;;
21777;SDS011;11050;52.222;20.916;2022-07-17T12:59:19;1.30;;;0.85;;
21777;SDS011;11050;52.222;20.916;2022-07-17T13:01:46;1.75;;;1.02;;
21777;SDS011;11050;52.222;20.916;2022-07-17T13:04:12;2.15;;;1.15;;
21777;SDS011;11050;52.222;20.916;2022-07-17T13:06:38;5.18;;;1.05;;
21777;SDS011;11050;52.222;20.916;2022-07-17T13:09:04;1.55;;;0.90;;
21777;SDS011;11050;52.222;20.916;2022-07-17T13:11:32;2.33;;;1.20;;
21777;SDS011;11050;52.222;20.916;2022-07-17T13:13:58;3.10;;;1.27;;
21777;SDS011;11050;52.222;20.916;2022-07-17T13:16:24;2.03;;;1.10;;
21777;SDS011;11050;52.222;20.916;2022-07-17T13:18:50;1.63;;;1.10;;
21777;SDS011;11050;52.222;20.916;2022-07-17T13:21:16;2.38;;;1.05;;
21777;SDS011;11050;52.222;20.916;2022-07-17T13:23:42;2.25;;;1.50;;
21777;SDS011;11050;52.222;20.916;2022-07-17T13:26:07;3.70;;;1.40;;
21777;SDS011;11050;52.222;20.916;2022-07-17T13:28:33;2.85;;;1.88;;
21777;SDS011;11050;52.222;20.916;2022-07-17T13:30:59;2.42;;;1.10;;
21777;SDS011;11050;52.222;20.916;2022-07-17T13:33:25;2.35;;;1.23;;
21777;SDS011;11050;52.222;20.916;2022-07-17T13:35:51;6.25;;;3.30;;
21777;SDS011;11050;52.222;20.916;2022-07-17T13:38:19;1.55;;;1.10;;
21777;SDS011;11050;52.222;20.916;2022-07-17T13:40:45;2.05;;;0.98;;
21777;SDS011;11050;52.222;20.916;2022-07-17T13:43:10;1.92;;;1.05;;
21777;SDS011;11050;52.222;20.916;2022-07-17T13:45:36;3.10;;;1.40;;
21777;SDS011;11050;52.222;20.916;2022-07-17T13:48:03;2.33;;;1.10;;
21777;SDS011;11050;52.222;20.916;2022-07-17T13:50:29;3.08;;;1.10;;
21777;SDS011;11050;52.222;20.916;2022-07-17T13:52:55;1.48;;;1.10;;
21777;SDS011;11050;52.222;20.916;2022-07-17T13:55:22;1.60;;;1.00;;
21777;SDS011;11050;52.222;20.916;2022-07-17T13:57:48;2.60;;;0.85;;
21777;SDS011;11050;52.222;20.916;2022-07-17T14:00:14;2.40;;;1.20;;
21777;SDS011;11050;52.222;20.916;2022-07-17T14:02:42;2.60;;;1.13;;
21777;SDS011;11050;52.222;20.916;2022-07-17T14:05:08;1.70;;;1.33;;
21777;SDS011;11050;52.222;20.916;2022-07-17T14:07:34;3.80;;;1.20;;
21777;SDS011;11050;52.222;20.916;2022-07-17T14:10:01;2.05;;;1.10;;
21777;SDS011;11050;52.222;20.916;2022-07-17T14:12:27;1.00;;;0.68;;
21777;SDS011;11050;52.222;20.916;2022-07-17T14:14:53;1.77;;;1.20;;
21777;SDS011;11050;52.222;20.916;2022-07-17T14:17:19;1.45;;;1.00;;
21777;SDS011;11050;52.222;20.916;2022-07-17T14:19:45;1.30;;;0.85;;
21777;SDS011;11050;52.222;20.916;2022-07-17T14:22:11;1.38;;;0.80;;
21777;SDS011;11050;52.222;20.916;2022-07-17T14:24:37;2.10;;;1.10;;
21777;SDS011;11050;52.222;20.916;2022-07-17T14:27:03;1.70;;;1.00;;
21777;SDS011;11050;52.222;20.916;2022-07-17T14:29:29;1.98;;;1.00;;
21777;SDS011;11050;52.222;20.916;2022-07-17T14:31:55;1.30;;;0.93;;
21777;SDS011;11050;52.222;20.916;2022-07-17T14:34:21;3.03;;;0.90;;
21777;SDS011;11050;52.222;20.916;2022-07-17T14:36:47;2.13;;;1.00;;
21777;SDS011;11050;52.222;20.916;2022-07-17T14:39:14;2.17;;;0.80;;
21777;SDS011;11050;52.222;20.916;2022-07-17T14:41:40;2.33;;;0.90;;
21777;SDS011;11050;52.222;20.916;2022-07-17T14:44:09;1.05;;;0.80;;
21777;SDS011;11050;52.222;20.916;2022-07-17T14:46:36;1.60;;;0.90;;
21777;SDS011;11050;52.222;20.916;2022-07-17T14:49:03;3.33;;;1.00;;
21777;SDS011;11050;52.222;20.916;2022-07-17T14:51:29;1.75;;;0.95;;